sensor_id;sensor_type;location;lat;lon;timestamp;temperature;humidity
2202;DHT22;1107;48.654;9.250;2024-03-22T00:02:21;9.80;99.90
2202;DHT22;1107;48.654;9.250;2024-03-22T00:04:48;9.80;99.90
2202;DHT22;1107;48.654;9.250;2024-03-22T00:07:14;9.80;99.90
2202;DHT22;1107;48.654;9.250;2024-03-22T00:09:42;9.80;99.90
2202;DHT22;1107;48.654;9.250;2024-03-22T00:12:08;9.90;99.90
2202;DHT22;1107;48.654;9.250;2024-03-22T00:14:35;9.80;99.90
2202;DHT22;1107;48.654;9.250;2024-03-22T00:17:00;9.80;99.90
2202;DHT22;1107;48.654;9.250;2024-03-22T00:19:27;9.80;99.90
2202;DHT22;1107;48.654;9.250;2024-03-22T00:21:53;9.80;99.90
2202;DHT22;1107;48.654;9.250;2024-03-22T00:24:20;9.80;99.90
2202;DHT22;1107;48.654;9.250;2024-03-22T00:26:47;9.80;99.90
2202;DHT22;1107;48.654;9.250;2024-03-22T00:29:13;9.80;99.90
2202;DHT22;1107;48.654;9.250;2024-03-22T00:31:39;9.70;99.90
2202;DHT22;1107;48.654;9.250;2024-03-22T00:34:06;9.70;99.90
2202;DHT22;1107;48.654;9.250;2024-03-22T00:36:32;9.60;99.90
2202;DHT22;1107;48.654;9.250;2024-03-22T00:38:58;9.70;99.90
2202;DHT22;1107;48.654;9.250;2024-03-22T00:41:24;9.70;99.90
2202;DHT22;1107;48.654;9.250;2024-03-22T00:43:52;9.70;99.90
2202;DHT22;1107;48.654;9.250;2024-03-22T00:46:18;9.80;99.90
2202;DHT22;1107;48.654;9.250;2024-03-22T00:48:45;9.70;99.90
2202;DHT22;1107;48.654;9.250;2024-03-22T00:51:10;9.80;99.90
2202;DHT22;1107;48.654;9.250;2024-03-22T00:53:37;9.80;99.90
2202;DHT22;1107;48.654;9.250;2024-03-22T00:56:03;9.70;99.90
2202;DHT22;1107;48.654;9.250;2024-03-22T00:58:30;9.70;99.90
2202;DHT22;1107;48.654;9.250;2024-03-22T01:00:57;9.60;99.90
2202;DHT22;1107;48.654;9.250;2024-03-22T01:03:24;9.40;99.90
2202;DHT22;1107;48.654;9.250;2024-03-22T01:05:49;9.10;99.90
2202;DHT22;1107;48.654;9.250;2024-03-22T01:08:16;8.90;99.90
2202;DHT22;1107;48.654;9.250;2024-03-22T01:10:42;8.80;99.90
2202;DHT22;1107;48.654;9.250;2024-03-22T01:13:09;8.60;99.90
2202;DHT22;1107;48.654;9.250;2024-03-22T01:15:34;8.50;99.90
2202;DHT22;1107;48.654;9.250;2024-03-22T01:18:03;8.40;99.90
2202;DHT22;1107;48.654;9.250;2024-03-22T01:20:28;8.30;99.90
2202;DHT22;1107;48.654;9.250;2024-03-22T01:22:55;8.30;99.90
2202;DHT22;1107;48.654;9.250;2024-03-22T01:25:21;8.30;99.90
2202;DHT22;1107;48.654;9.250;2024-03-22T01:27:48;8.30;99.90
2202;DHT22;1107;48.654;9.250;2024-03-22T01:30:13;8.30;99.90
2202;DHT22;1107;48.654;9.250;2024-03-22T01:32:40;8.30;99.90
2202;DHT22;1107;48.654;9.250;2024-03-22T01:35:08;8.30;99.90
2202;DHT22;1107;48.654;9.250;2024-03-22T01:37:35;8.30;99.90
2202;DHT22;1107;48.654;9.250;2024-03-22T01:40:00;8.30;99.90
2202;DHT22;1107;48.654;9.250;2024-03-22T01:42:27;8.30;99.90
2202;DHT22;1107;48.654;9.250;2024-03-22T01:44:53;8.30;99.90
2202;DHT22;1107;48.654;9.250;2024-03-22T01:47:20;8.30;99.90
2202;DHT22;1107;48.654;9.250;2024-03-22T01:49:46;8.30;99.90
2202;DHT22;1107;48.654;9.250;2024-03-22T01:52:14;8.30;99.90
2202;DHT22;1107;48.654;9.250;2024-03-22T01:54:40;8.30;99.90
2202;DHT22;1107;48.654;9.250;2024-03-22T01:57:07;8.30;99.90
2202;DHT22;1107;48.654;9.250;2024-03-22T01:59:33;8.30;99.90
2202;DHT22;1107;48.654;9.250;2024-03-22T02:02:00;8.30;99.90
2202;DHT22;1107;48.654;9.250;2024-03-22T02:04:28;8.20;99.90
2202;DHT22;1107;48.654;9.250;2024-03-22T02:06:54;8.30;99.90
2202;DHT22;1107;48.654;9.250;2024-03-22T02:09:21;8.30;99.90
2202;DHT22;1107;48.654;9.250;2024-03-22T02:11:48;8.30;99.90
2202;DHT22;1107;48.654;9.250;2024-03-22T02:14:14;8.30;99.90
2202;DHT22;1107;48.654;9.250;2024-03-22T02:16:41;8.40;99.90
2202;DHT22;1107;48.654;9.250;2024-03-22T02:19:06;8.40;99.90
2202;DHT22;1107;48.654;9.250;2024-03-22T02:21:34;8.40;99.90
2202;DHT22;1107;48.654;9.250;2024-03-22T02:24:01;8.40;99.90
2202;DHT22;1107;48.654;9.250;2024-03-22T02:26:27;8.40;99.90
2202;DHT22;1107;48.654;9.250;2024-03-22T02:28:53;8.40;99.90
2202;DHT22;1107;48.654;9.250;2024-03-22T02:31:20;8.40;99.90
2202;DHT22;1107;48.654;9.250;2024-03-22T02:33:45;8.40;99.90
2202;DHT22;1107;48.654;9.250;2024-03-22T02:36:12;8.30;99.90
2202;DHT22;1107;48.654;9.250;2024-03-22T02:38:38;8.30;99.90
2202;DHT22;1107;48.654;9.250;2024-03-22T02:41:06;8.30;99.90
2202;DHT22;1107;48.654;9.250;2024-03-22T02:43:32;8.30;99.90
2202;DHT22;1107;48.654;9.250;2024-03-22T02:45:58;8.30;99.90
2202;DHT22;1107;48.654;9.250;2024-03-22T02:48:24;8.30;99.90
2202;DHT22;1107;48.654;9.250;2024-03-22T02:50:54;8.30;99.90
2202;DHT22;1107;48.654;9.250;2024-03-22T02:53:20;8.30;99.90
2202;DHT22;1107;48.654;9.250;2024-03-22T02:55:47;8.20;99.90
2202;DHT22;1107;48.654;9.250;2024-03-22T02:58:14;8.20;99.90
2202;DHT22;1107;48.654;9.250;2024-03-22T03:00:41;8.10;99.90
2202;DHT22;1107;48.654;9.250;2024-03-22T03:03:07;8.10;99.90
2202;DHT22;1107;48.654;9.250;2024-03-22T03:05:34;8.10;99.90
2202;DHT22;1107;48.654;9.250;2024-03-22T03:08:00;8.00;99.90
2202;DHT22;1107;48.654;9.250;2024-03-22T03:10:27;8.00;99.90
2202;DHT22;1107;48.654;9.250;2024-03-22T03:12:54;8.00;99.90
2202;DHT22;1107;48.654;9.250;2024-03-22T03:15:22;8.00;99.90
2202;DHT22;1107;48.654;9.250;2024-03-22T03:17:48;7.90;99.90
2202;DHT22;1107;48.654;9.250;2024-03-22T03:20:14;7.80;99.90
2202;DHT22;1107;48.654;9.250;2024-03-22T03:22:40;7.80;99.90
2202;DHT22;1107;48.654;9.250;2024-03-22T03:25:07;7.70;99.90
2202;DHT22;1107;48.654;9.250;2024-03-22T03:27:33;7.70;99.90
2202;DHT22;1107;48.654;9.250;2024-03-22T03:30:00;7.80;99.90
2202;DHT22;1107;48.654;9.250;2024-03-22T03:32:27;7.80;99.90
2202;DHT22;1107;48.654;9.250;2024-03-22T03:34:54;7.80;99.90
2202;DHT22;1107;48.654;9.250;2024-03-22T03:37:20;7.90;99.90
2202;DHT22;1107;48.654;9.250;2024-03-22T03:39:47;7.90;99.90
2202;DHT22;1107;48.654;9.250;2024-03-22T03:42:12;8.00;99.90
2202;DHT22;1107;48.654;9.250;2024-03-22T03:44:39;8.00;99.90
2202;DHT22;1107;48.654;9.250;2024-03-22T03:47:06;8.10;99.90
2202;DHT22;1107;48.654;9.250;2024-03-22T03:49:35;8.10;99.90
2202;DHT22;1107;48.654;9.250;2024-03-22T03:52:00;8.10;99.90
2202;DHT22;1107;48.654;9.250;2024-03-22T03:54:27;8.10;99.90
2202;DHT22;1107;48.654;9.250;2024-03-22T03:56:53;8.10;99.90
2202;DHT22;1107;48.654;9.250;2024-03-22T03:59:20;8.10;99.90
2202;DHT22;1107;48.654;9.250;2024-03-22T04:01:46;8.00;99.90
2202;DHT22;1107;48.654;9.250;2024-03-22T04:04:13;8.00;99.90
2202;DHT22;1107;48.654;9.250;2024-03-22T04:06:40;8.00;99.90
2202;DHT22;1107;48.654;9.250;2024-03-22T04:09:06;8.00;99.90
2202;DHT22;1107;48.654;9.250;2024-03-22T04:11:32;8.00;99.90
2202;DHT22;1107;48.654;9.250;2024-03-22T04:13:59;8.00;99.90
2202;DHT22;1107;48.654;9.250;2024-03-22T04:16:25;8.00;99.90
2202;DHT22;1107;48.654;9.250;2024-03-22T04:18:51;8.00;99.90
2202;DHT22;1107;48.654;9.250;2024-03-22T04:21:17;8.00;99.90
2202;DHT22;1107;48.654;9.250;2024-03-22T04:23:45;8.00;99.90
2202;DHT22;1107;48.654;9.250;2024-03-22T04:26:11;8.00;99.90
2202;DHT22;1107;48.654;9.250;2024-03-22T04:28:38;8.00;99.90
2202;DHT22;1107;48.654;9.250;2024-03-22T04:31:04;8.00;99.90
2202;DHT22;1107;48.654;9.250;2024-03-22T04:33:31;8.00;99.90
2202;DHT22;1107;48.654;9.250;2024-03-22T04:35:59;8.00;99.90
2202;DHT22;1107;48.654;9.250;2024-03-22T04:38:25;8.00;99.90
2202;DHT22;1107;48.654;9.250;2024-03-22T04:40:53;8.00;99.90
2202;DHT22;1107;48.654;9.250;2024-03-22T04:43:20;8.00;99.90
2202;DHT22;1107;48.654;9.250;2024-03-22T04:45:47;8.10;99.90
2202;DHT22;1107;48.654;9.250;2024-03-22T04:48:13;8.10;99.90
2202;DHT22;1107;48.654;9.250;2024-03-22T04:50:40;8.10;99.90
2202;DHT22;1107;48.654;9.250;2024-03-22T04:53:06;8.10;99.90
2202;DHT22;1107;48.654;9.250;2024-03-22T04:55:33;8.10;99.90
2202;DHT22;1107;48.654;9.250;2024-03-22T04:58:00;8.10;99.90
2202;DHT22;1107;48.654;9.250;2024-03-22T05:00:27;8.10;99.90
2202;DHT22;1107;48.654;9.250;2024-03-22T05:02:53;8.10;99.90
2202;DHT22;1107;48.654;9.250;2024-03-22T05:05:20;8.00;99.90
2202;DHT22;1107;48.654;9.250;2024-03-22T05:07:46;8.00;99.90
2202;DHT22;1107;48.654;9.250;2024-03-22T05:10:12;8.00;99.90
2202;DHT22;1107;48.654;9.250;2024-03-22T05:12:38;7.90;99.90
2202;DHT22;1107;48.654;9.250;2024-03-22T05:15:07;7.90;99.90
2202;DHT22;1107;48.654;9.250;2024-03-22T05:17:32;7.90;99.90
2202;DHT22;1107;48.654;9.250;2024-03-22T05:19:59;7.80;99.90
2202;DHT22;1107;48.654;9.250;2024-03-22T05:22:25;7.70;99.90
2202;DHT22;1107;48.654;9.250;2024-03-22T05:24:52;7.60;99.90
2202;DHT22;1107;48.654;9.250;2024-03-22T05:27:18;7.60;99.90
2202;DHT22;1107;48.654;9.250;2024-03-22T05:29:44;7.50;99.90
2202;DHT22;1107;48.654;9.250;2024-03-22T05:32:11;7.40;99.90
2202;DHT22;1107;48.654;9.250;2024-03-22T05:34:38;7.40;99.90
2202;DHT22;1107;48.654;9.250;2024-03-22T05:37:04;7.40;99.90
2202;DHT22;1107;48.654;9.250;2024-03-22T05:39:31;7.40;99.90
2202;DHT22;1107;48.654;9.250;2024-03-22T05:41:56;7.40;99.90
2202;DHT22;1107;48.654;9.250;2024-03-22T05:44:23;7.40;99.90
2202;DHT22;1107;48.654;9.250;2024-03-22T05:46:49;7.50;99.90
2202;DHT22;1107;48.654;9.250;2024-03-22T05:49:17;7.50;99.90
2202;DHT22;1107;48.654;9.250;2024-03-22T05:51:43;7.50;99.90
2202;DHT22;1107;48.654;9.250;2024-03-22T05:54:09;7.50;99.90
2202;DHT22;1107;48.654;9.250;2024-03-22T05:56:35;7.50;99.90
2202;DHT22;1107;48.654;9.250;2024-03-22T05:59:02;7.50;99.90
2202;DHT22;1107;48.654;9.250;2024-03-22T06:01:28;7.50;99.90
2202;DHT22;1107;48.654;9.250;2024-03-22T06:03:55;7.50;99.90
2202;DHT22;1107;48.654;9.250;2024-03-22T06:06:22;7.50;99.90
2202;DHT22;1107;48.654;9.250;2024-03-22T06:08:51;7.50;99.90
2202;DHT22;1107;48.654;9.250;2024-03-22T06:11:18;7.50;99.90
2202;DHT22;1107;48.654;9.250;2024-03-22T06:13:44;7.70;99.90
2202;DHT22;1107;48.654;9.250;2024-03-22T06:16:10;7.70;99.90
2202;DHT22;1107;48.654;9.250;2024-03-22T06:18:37;7.70;99.90
2202;DHT22;1107;48.654;9.250;2024-03-22T06:21:03;7.70;99.90
2202;DHT22;1107;48.654;9.250;2024-03-22T06:23:31;7.90;99.90
2202;DHT22;1107;48.654;9.250;2024-03-22T06:25:57;8.20;99.90
2202;DHT22;1107;48.654;9.250;2024-03-22T06:28:25;8.30;99.90
2202;DHT22;1107;48.654;9.250;2024-03-22T06:30:51;8.30;99.90
2202;DHT22;1107;48.654;9.250;2024-03-22T06:33:17;8.30;99.90
2202;DHT22;1107;48.654;9.250;2024-03-22T06:35:44;8.30;99.90
2202;DHT22;1107;48.654;9.250;2024-03-22T06:38:10;8.60;99.90
2202;DHT22;1107;48.654;9.250;2024-03-22T06:40:38;8.90;99.90
2202;DHT22;1107;48.654;9.250;2024-03-22T06:43:04;9.30;99.90
2202;DHT22;1107;48.654;9.250;2024-03-22T06:45:31;9.40;99.90
2202;DHT22;1107;48.654;9.250;2024-03-22T06:47:57;9.50;99.90
2202;DHT22;1107;48.654;9.250;2024-03-22T06:50:24;9.40;99.90
2202;DHT22;1107;48.654;9.250;2024-03-22T06:52:49;9.60;99.90
2202;DHT22;1107;48.654;9.250;2024-03-22T06:55:17;9.70;99.90
2202;DHT22;1107;48.654;9.250;2024-03-22T06:57:45;10.00;99.90
2202;DHT22;1107;48.654;9.250;2024-03-22T07:00:12;10.40;99.90
2202;DHT22;1107;48.654;9.250;2024-03-22T07:02:38;10.90;99.90
2202;DHT22;1107;48.654;9.250;2024-03-22T07:05:05;11.10;99.90
2202;DHT22;1107;48.654;9.250;2024-03-22T07:07:31;11.20;99.90
2202;DHT22;1107;48.654;9.250;2024-03-22T07:09:58;11.40;99.90
2202;DHT22;1107;48.654;9.250;2024-03-22T07:12:24;11.60;99.90
2202;DHT22;1107;48.654;9.250;2024-03-22T07:14:52;11.80;99.90
2202;DHT22;1107;48.654;9.250;2024-03-22T07:17:18;12.00;99.90
2202;DHT22;1107;48.654;9.250;2024-03-22T07:19:49;12.30;99.90
2202;DHT22;1107;48.654;9.250;2024-03-22T07:22:14;12.60;99.90
2202;DHT22;1107;48.654;9.250;2024-03-22T07:24:41;13.00;99.90
2202;DHT22;1107;48.654;9.250;2024-03-22T07:27:07;13.30;99.90
2202;DHT22;1107;48.654;9.250;2024-03-22T07:29:34;13.50;99.90
2202;DHT22;1107;48.654;9.250;2024-03-22T07:32:01;14.00;99.90
2202;DHT22;1107;48.654;9.250;2024-03-22T07:34:28;14.00;99.90
2202;DHT22;1107;48.654;9.250;2024-03-22T07:36:54;14.20;99.90
2202;DHT22;1107;48.654;9.250;2024-03-22T07:39:21;14.40;99.90
2202;DHT22;1107;48.654;9.250;2024-03-22T07:41:47;14.60;99.90
2202;DHT22;1107;48.654;9.250;2024-03-22T07:44:13;14.90;99.90
2202;DHT22;1107;48.654;9.250;2024-03-22T07:46:39;15.20;99.90
2202;DHT22;1107;48.654;9.250;2024-03-22T07:49:07;15.40;99.90
2202;DHT22;1107;48.654;9.250;2024-03-22T07:51:33;15.40;99.90
2202;DHT22;1107;48.654;9.250;2024-03-22T07:54:00;15.80;99.90
2202;DHT22;1107;48.654;9.250;2024-03-22T07:56:26;15.70;99.90
2202;DHT22;1107;48.654;9.250;2024-03-22T07:58:53;15.70;99.90
2202;DHT22;1107;48.654;9.250;2024-03-22T08:01:19;15.70;99.90
2202;DHT22;1107;48.654;9.250;2024-03-22T08:03:45;15.90;99.90
2202;DHT22;1107;48.654;9.250;2024-03-22T08:06:13;16.20;99.90
2202;DHT22;1107;48.654;9.250;2024-03-22T08:08:39;16.60;99.90
2202;DHT22;1107;48.654;9.250;2024-03-22T08:11:05;16.90;99.90
2202;DHT22;1107;48.654;9.250;2024-03-22T08:13:32;17.50;99.90
2202;DHT22;1107;48.654;9.250;2024-03-22T08:15:58;17.40;99.90
2202;DHT22;1107;48.654;9.250;2024-03-22T08:18:24;18.10;99.90
2202;DHT22;1107;48.654;9.250;2024-03-22T08:20:50;18.60;99.90
2202;DHT22;1107;48.654;9.250;2024-03-22T08:23:18;19.30;99.90
2202;DHT22;1107;48.654;9.250;2024-03-22T08:25:45;19.80;99.90
2202;DHT22;1107;48.654;9.250;2024-03-22T08:28:12;19.70;99.90
2202;DHT22;1107;48.654;9.250;2024-03-22T08:30:39;20.50;99.90
2202;DHT22;1107;48.654;9.250;2024-03-22T08:33:06;20.60;99.90
2202;DHT22;1107;48.654;9.250;2024-03-22T08:35:32;20.50;99.90
2202;DHT22;1107;48.654;9.250;2024-03-22T08:37:58;20.90;99.90
2202;DHT22;1107;48.654;9.250;2024-03-22T08:40:26;21.10;99.90
2202;DHT22;1107;48.654;9.250;2024-03-22T08:42:53;21.10;99.90
2202;DHT22;1107;48.654;9.250;2024-03-22T08:45:19;21.70;99.90
2202;DHT22;1107;48.654;9.250;2024-03-22T08:47:45;22.30;99.90
2202;DHT22;1107;48.654;9.250;2024-03-22T08:50:11;22.50;99.90
2202;DHT22;1107;48.654;9.250;2024-03-22T08:52:38;21.70;99.90
2202;DHT22;1107;48.654;9.250;2024-03-22T08:55:04;22.10;99.90
2202;DHT22;1107;48.654;9.250;2024-03-22T08:57:33;22.30;99.90
2202;DHT22;1107;48.654;9.250;2024-03-22T08:59:59;22.70;99.90
2202;DHT22;1107;48.654;9.250;2024-03-22T09:02:26;22.40;99.90
2202;DHT22;1107;48.654;9.250;2024-03-22T09:04:52;22.60;99.90
2202;DHT22;1107;48.654;9.250;2024-03-22T09:07:19;22.70;99.90
2202;DHT22;1107;48.654;9.250;2024-03-22T09:09:45;22.50;99.90
2202;DHT22;1107;48.654;9.250;2024-03-22T09:12:12;22.70;99.90
2202;DHT22;1107;48.654;9.250;2024-03-22T09:14:39;22.90;99.90
2202;DHT22;1107;48.654;9.250;2024-03-22T09:17:06;23.10;99.90
2202;DHT22;1107;48.654;9.250;2024-03-22T09:19:32;22.50;99.90
2202;DHT22;1107;48.654;9.250;2024-03-22T09:21:59;22.70;99.90
2202;DHT22;1107;48.654;9.250;2024-03-22T09:24:24;22.30;99.90
2202;DHT22;1107;48.654;9.250;2024-03-22T09:26:51;23.00;99.90
2202;DHT22;1107;48.654;9.250;2024-03-22T09:29:18;23.20;99.90
2202;DHT22;1107;48.654;9.250;2024-03-22T09:31:46;22.90;99.90
2202;DHT22;1107;48.654;9.250;2024-03-22T09:34:12;23.30;99.90
2202;DHT22;1107;48.654;9.250;2024-03-22T09:36:41;24.50;99.90
2202;DHT22;1107;48.654;9.250;2024-03-22T09:39:07;24.90;99.90
2202;DHT22;1107;48.654;9.250;2024-03-22T09:41:35;25.20;99.90
2202;DHT22;1107;48.654;9.250;2024-03-22T09:44:04;24.80;99.90
2202;DHT22;1107;48.654;9.250;2024-03-22T09:46:32;25.10;99.90
2202;DHT22;1107;48.654;9.250;2024-03-22T09:48:59;25.50;99.90
2202;DHT22;1107;48.654;9.250;2024-03-22T09:51:27;25.50;99.90
2202;DHT22;1107;48.654;9.250;2024-03-22T09:53:53;26.30;99.90
2202;DHT22;1107;48.654;9.250;2024-03-22T09:56:21;26.30;99.90
2202;DHT22;1107;48.654;9.250;2024-03-22T09:58:46;27.10;99.90
2202;DHT22;1107;48.654;9.250;2024-03-22T10:01:13;26.70;99.90
2202;DHT22;1107;48.654;9.250;2024-03-22T10:03:40;26.00;99.90
2202;DHT22;1107;48.654;9.250;2024-03-22T10:06:07;25.20;99.90
2202;DHT22;1107;48.654;9.250;2024-03-22T10:08:34;24.70;99.90
2202;DHT22;1107;48.654;9.250;2024-03-22T10:11:01;24.60;99.90
2202;DHT22;1107;48.654;9.250;2024-03-22T10:13:28;24.70;99.90
2202;DHT22;1107;48.654;9.250;2024-03-22T10:15:54;25.40;99.90
2202;DHT22;1107;48.654;9.250;2024-03-22T10:18:21;24.70;99.90
2202;DHT22;1107;48.654;9.250;2024-03-22T10:20:47;25.30;99.90
2202;DHT22;1107;48.654;9.250;2024-03-22T10:23:26;25.50;99.90
2202;DHT22;1107;48.654;9.250;2024-03-22T10:25:52;26.00;99.90
2202;DHT22;1107;48.654;9.250;2024-03-22T10:28:19;26.40;99.90
2202;DHT22;1107;48.654;9.250;2024-03-22T10:30:44;26.00;99.90
2202;DHT22;1107;48.654;9.250;2024-03-22T10:33:13;25.40;99.90
2202;DHT22;1107;48.654;9.250;2024-03-22T10:35:40;25.20;99.90
2202;DHT22;1107;48.654;9.250;2024-03-22T10:38:07;24.80;99.90
2202;DHT22;1107;48.654;9.250;2024-03-22T10:40:37;24.80;99.90
2202;DHT22;1107;48.654;9.250;2024-03-22T10:43:04;24.80;99.90
2202;DHT22;1107;48.654;9.250;2024-03-22T10:45:30;25.00;99.90
2202;DHT22;1107;48.654;9.250;2024-03-22T10:47:58;25.40;99.90
2202;DHT22;1107;48.654;9.250;2024-03-22T10:50:28;26.10;99.90
2202;DHT22;1107;48.654;9.250;2024-03-22T10:52:56;26.50;99.90
2202;DHT22;1107;48.654;9.250;2024-03-22T10:55:24;27.70;99.90
2202;DHT22;1107;48.654;9.250;2024-03-22T10:57:55;27.40;99.90
2202;DHT22;1107;48.654;9.250;2024-03-22T11:00:26;27.30;99.90
2202;DHT22;1107;48.654;9.250;2024-03-22T11:02:53;26.50;99.60
2202;DHT22;1107;48.654;9.250;2024-03-22T11:05:21;25.90;94.60
2202;DHT22;1107;48.654;9.250;2024-03-22T11:07:57;25.20;87.50
2202;DHT22;1107;48.654;9.250;2024-03-22T11:10:25;24.90;85.00
2202;DHT22;1107;48.654;9.250;2024-03-22T11:12:52;24.30;99.90
2202;DHT22;1107;48.654;9.250;2024-03-22T11:15:19;24.00;86.80
2202;DHT22;1107;48.654;9.250;2024-03-22T11:17:46;24.00;89.40
2202;DHT22;1107;48.654;9.250;2024-03-22T11:20:12;24.50;91.50
2202;DHT22;1107;48.654;9.250;2024-03-22T11:22:39;25.10;92.50
2202;DHT22;1107;48.654;9.250;2024-03-22T11:25:05;26.50;97.10
2202;DHT22;1107;48.654;9.250;2024-03-22T11:27:32;27.60;99.90
2202;DHT22;1107;48.654;9.250;2024-03-22T11:29:58;27.70;99.40
2202;DHT22;1107;48.654;9.250;2024-03-22T11:32:26;28.00;97.70
2202;DHT22;1107;48.654;9.250;2024-03-22T11:34:53;28.40;97.10
2202;DHT22;1107;48.654;9.250;2024-03-22T11:37:20;28.70;97.60
2202;DHT22;1107;48.654;9.250;2024-03-22T11:39:46;29.10;98.80
2202;DHT22;1107;48.654;9.250;2024-03-22T11:42:13;29.30;97.50
2202;DHT22;1107;48.654;9.250;2024-03-22T11:44:39;29.00;94.20
2202;DHT22;1107;48.654;9.250;2024-03-22T11:47:06;28.60;91.20
2202;DHT22;1107;48.654;9.250;2024-03-22T11:49:33;28.70;89.40
2202;DHT22;1107;48.654;9.250;2024-03-22T11:52:00;29.30;91.40
2202;DHT22;1107;48.654;9.250;2024-03-22T11:54:26;29.10;83.40
2202;DHT22;1107;48.654;9.250;2024-03-22T11:56:55;29.70;88.80
2202;DHT22;1107;48.654;9.250;2024-03-22T11:59:21;30.10;87.80
2202;DHT22;1107;48.654;9.250;2024-03-22T12:01:48;30.10;85.90
2202;DHT22;1107;48.654;9.250;2024-03-22T12:04:13;30.60;90.30
2202;DHT22;1107;48.654;9.250;2024-03-22T12:06:42;29.40;71.00
2202;DHT22;1107;48.654;9.250;2024-03-22T12:09:08;29.30;66.30
2202;DHT22;1107;48.654;9.250;2024-03-22T12:11:37;29.30;67.70
2202;DHT22;1107;48.654;9.250;2024-03-22T12:14:03;29.40;68.40
2202;DHT22;1107;48.654;9.250;2024-03-22T12:16:30;29.50;68.00
2202;DHT22;1107;48.654;9.250;2024-03-22T12:18:56;29.60;66.60
2202;DHT22;1107;48.654;9.250;2024-03-22T12:21:22;29.80;67.90
2202;DHT22;1107;48.654;9.250;2024-03-22T12:23:50;29.10;59.80
2202;DHT22;1107;48.654;9.250;2024-03-22T12:26:17;29.00;57.60
2202;DHT22;1107;48.654;9.250;2024-03-22T12:28:43;28.00;50.80
2202;DHT22;1107;48.654;9.250;2024-03-22T12:31:09;27.70;47.70
2202;DHT22;1107;48.654;9.250;2024-03-22T12:33:36;27.90;49.20
2202;DHT22;1107;48.654;9.250;2024-03-22T12:36:03;28.20;51.60
2202;DHT22;1107;48.654;9.250;2024-03-22T12:38:29;27.90;51.30
2202;DHT22;1107;48.654;9.250;2024-03-22T12:40:57;26.40;37.30
2202;DHT22;1107;48.654;9.250;2024-03-22T12:43:23;26.20;37.50
2202;DHT22;1107;48.654;9.250;2024-03-22T12:45:50;25.70;34.70
2202;DHT22;1107;48.654;9.250;2024-03-22T12:48:15;25.60;34.00
2202;DHT22;1107;48.654;9.250;2024-03-22T12:50:42;24.70;30.20
2202;DHT22;1107;48.654;9.250;2024-03-22T12:53:08;24.10;27.40
2202;DHT22;1107;48.654;9.250;2024-03-22T12:55:35;23.70;43.50
2202;DHT22;1107;48.654;9.250;2024-03-22T12:58:02;23.50;27.20
2202;DHT22;1107;48.654;9.250;2024-03-22T13:00:30;23.70;28.40
2202;DHT22;1107;48.654;9.250;2024-03-22T13:02:55;24.10;31.10
2202;DHT22;1107;48.654;9.250;2024-03-22T13:05:22;25.00;37.60
2202;DHT22;1107;48.654;9.250;2024-03-22T13:07:48;26.00;44.70
2202;DHT22;1107;48.654;9.250;2024-03-22T13:10:15;26.30;45.60
2202;DHT22;1107;48.654;9.250;2024-03-22T13:12:40;26.70;46.00
2202;DHT22;1107;48.654;9.250;2024-03-22T13:15:09;26.60;46.10
2202;DHT22;1107;48.654;9.250;2024-03-22T13:17:35;26.30;45.50
2202;DHT22;1107;48.654;9.250;2024-03-22T13:20:02;25.70;40.40
2202;DHT22;1107;48.654;9.250;2024-03-22T13:22:29;24.60;33.40
2202;DHT22;1107;48.654;9.250;2024-03-22T13:24:56;24.60;32.30
2202;DHT22;1107;48.654;9.250;2024-03-22T13:27:21;23.80;29.30
2202;DHT22;1107;48.654;9.250;2024-03-22T13:29:51;23.50;27.70
2202;DHT22;1107;48.654;9.250;2024-03-22T13:32:19;23.00;40.10
2202;DHT22;1107;48.654;9.250;2024-03-22T13:34:46;23.00;24.40
2202;DHT22;1107;48.654;9.250;2024-03-22T13:37:11;22.90;24.40
2202;DHT22;1107;48.654;9.250;2024-03-22T13:39:38;23.80;30.10
2202;DHT22;1107;48.654;9.250;2024-03-22T13:42:04;24.40;32.80
2202;DHT22;1107;48.654;9.250;2024-03-22T13:44:32;25.30;39.90
2202;DHT22;1107;48.654;9.250;2024-03-22T13:46:57;24.60;35.30
2202;DHT22;1107;48.654;9.250;2024-03-22T13:49:26;23.70;28.90
2202;DHT22;1107;48.654;9.250;2024-03-22T13:51:51;23.30;26.70
2202;DHT22;1107;48.654;9.250;2024-03-22T13:54:18;22.80;23.70
2202;DHT22;1107;48.654;9.250;2024-03-22T13:56:44;22.40;21.80
2202;DHT22;1107;48.654;9.250;2024-03-22T13:59:10;22.00;21.60
2202;DHT22;1107;48.654;9.250;2024-03-22T14:01:38;21.90;20.80
2202;DHT22;1107;48.654;9.250;2024-03-22T14:04:07;21.80;20.50
2202;DHT22;1107;48.654;9.250;2024-03-22T14:06:34;21.40;18.70
2202;DHT22;1107;48.654;9.250;2024-03-22T14:09:01;21.40;18.80
2202;DHT22;1107;48.654;9.250;2024-03-22T14:11:27;21.40;18.80
2202;DHT22;1107;48.654;9.250;2024-03-22T14:13:55;21.70;20.30
2202;DHT22;1107;48.654;9.250;2024-03-22T14:16:21;22.10;23.40
2202;DHT22;1107;48.654;9.250;2024-03-22T14:18:48;22.40;25.60
2202;DHT22;1107;48.654;9.250;2024-03-22T14:21:15;22.70;28.10
2202;DHT22;1107;48.654;9.250;2024-03-22T14:23:46;22.90;29.90
2202;DHT22;1107;48.654;9.250;2024-03-22T14:26:13;22.70;26.90
2202;DHT22;1107;48.654;9.250;2024-03-22T14:28:39;22.80;27.10
2202;DHT22;1107;48.654;9.250;2024-03-22T14:33:33;23.40;31.20
2202;DHT22;1107;48.654;9.250;2024-03-22T14:36:00;23.30;30.00
2202;DHT22;1107;48.654;9.250;2024-03-22T14:38:26;23.30;27.50
2202;DHT22;1107;48.654;9.250;2024-03-22T14:40:53;24.00;31.00
2202;DHT22;1107;48.654;9.250;2024-03-22T14:43:20;24.80;34.40
2202;DHT22;1107;48.654;9.250;2024-03-22T14:45:46;25.60;40.50
2202;DHT22;1107;48.654;9.250;2024-03-22T14:48:12;24.60;33.70
2202;DHT22;1107;48.654;9.250;2024-03-22T14:50:38;24.00;27.10
2202;DHT22;1107;48.654;9.250;2024-03-22T14:53:05;23.30;23.50
2202;DHT22;1107;48.654;9.250;2024-03-22T14:55:31;22.80;22.00
2202;DHT22;1107;48.654;9.250;2024-03-22T14:57:59;22.10;18.50
2202;DHT22;1107;48.654;9.250;2024-03-22T15:00:24;22.00;18.40
2202;DHT22;1107;48.654;9.250;2024-03-22T15:02:51;21.80;18.20
2202;DHT22;1107;48.654;9.250;2024-03-22T15:05:17;21.50;17.50
2202;DHT22;1107;48.654;9.250;2024-03-22T15:07:44;21.20;16.10
2202;DHT22;1107;48.654;9.250;2024-03-22T15:10:10;21.20;15.20
2202;DHT22;1107;48.654;9.250;2024-03-22T15:12:36;21.20;17.40
2202;DHT22;1107;48.654;9.250;2024-03-22T15:15:04;21.30;19.60
2202;DHT22;1107;48.654;9.250;2024-03-22T15:17:31;21.40;24.40
2202;DHT22;1107;48.654;9.250;2024-03-22T15:19:56;21.40;28.10
2202;DHT22;1107;48.654;9.250;2024-03-22T15:22:23;21.40;29.00
2202;DHT22;1107;48.654;9.250;2024-03-22T15:24:49;21.50;32.90
2202;DHT22;1107;48.654;9.250;2024-03-22T15:27:17;21.50;33.30
2202;DHT22;1107;48.654;9.250;2024-03-22T15:29:43;21.40;33.20
2202;DHT22;1107;48.654;9.250;2024-03-22T15:32:11;21.20;33.70
2202;DHT22;1107;48.654;9.250;2024-03-22T15:34:37;21.00;33.80
2202;DHT22;1107;48.654;9.250;2024-03-22T15:37:03;20.90;33.20
2202;DHT22;1107;48.654;9.250;2024-03-22T15:39:29;20.60;32.10
2202;DHT22;1107;48.654;9.250;2024-03-22T15:41:56;20.40;30.70
2202;DHT22;1107;48.654;9.250;2024-03-22T15:44:22;20.10;31.60
2202;DHT22;1107;48.654;9.250;2024-03-22T15:46:49;19.90;30.70
2202;DHT22;1107;48.654;9.250;2024-03-22T15:49:16;19.80;29.70
2202;DHT22;1107;48.654;9.250;2024-03-22T15:51:43;19.60;29.70
2202;DHT22;1107;48.654;9.250;2024-03-22T15:54:09;19.50;29.70
2202;DHT22;1107;48.654;9.250;2024-03-22T15:56:36;19.40;29.20
2202;DHT22;1107;48.654;9.250;2024-03-22T15:59:01;19.40;29.80
2202;DHT22;1107;48.654;9.250;2024-03-22T16:01:28;19.30;31.70
2202;DHT22;1107;48.654;9.250;2024-03-22T16:03:54;19.20;33.30
2202;DHT22;1107;48.654;9.250;2024-03-22T16:06:22;19.20;32.20
2202;DHT22;1107;48.654;9.250;2024-03-22T16:08:48;19.00;31.70